Borrazopolis, Brazil
Current Conditions -  °F | °C
As of 1:00 PM on Saturday 22 Nov 2014 (Local Time) from SBMG Reporting Station
Light Rain Light Rain  
Wind Chill: 73°   Ceiling: 10000
Heat Index: 73°   Visibility: 6mi
Dew Point: 68°   Wind: 9mph
Humidity: 83%   Direction: 360°N
Pressure: 29.97"   Gusts: NA
Location:  23.95°S, 51.59°W
Report Text: SBMG 221500Z 36008KT 9000 -RA FEW008 SCT035 BKN100 23/20 Q1015
Loading
Personal Weather Stations






























Interactive Weather Map New forecast layout! Learn more

10-Day Weather Forecast

Advertisements
Track Severe Weather on mobile